Time;durP1;ratioP1;P1;durP2;ratioP2;P2;SDS_P1;SDS_P2;PMS_P1;PMS_P2;Temp;Humidity;BMP_temperature;BMP_pressure;BME280_temperature;BME280_humidity;BME280_pressure;Samples;Min_cycle;Max_cycle;Signal;HPM_P1;HPM_P2
2022/09/29 00:01:50;;;;;;;18.45;3.30;;;;;;;;;;5092245;28;20059;-73
2022/09/29 00:04:55;;;;;;;13.25;2.80;;;;;;;;;;5091169;28;20420;-73
2022/09/29 00:07:59;;;;;;;12.13;3.03;;;;;;;;;;5091865;28;20055;-74
2022/09/29 00:11:06;;;;;;;14.65;3.05;;;;;;;;;;5091973;28;20066;-74
2022/09/29 00:14:10;;;;;;;18.02;3.35;;;;;;;;;;5091737;28;20047;-74
2022/09/29 00:17:15;;;;;;;13.25;3.88;;;;;;;;;;5091924;28;20110;-73
2022/09/29 00:20:19;;;;;;;14.93;4.10;;;;;;;;;;5090891;28;20055;-73
2022/09/29 00:23:24;;;;;;;16.33;4.07;;;;;;;;;;5093151;28;20372;-73
2022/09/29 00:26:28;;;;;;;18.30;4.50;;;;;;;;;;5091761;28;20047;-73
2022/09/29 00:29:32;;;;;;;16.98;4.38;;;;;;;;;;5091851;28;20059;-72
2022/09/29 00:32:37;;;;;;;20.60;4.55;;;;;;;;;;5091978;28;20051;-72
2022/09/29 00:35:41;;;;;;;14.43;4.03;;;;;;;;;;5091573;28;20046;-73
2022/09/29 00:38:46;;;;;;;18.95;4.88;;;;;;;;;;5091643;28;20523;-73
2022/09/29 00:41:50;;;;;;;15.85;4.85;;;;;;;;;;5091307;28;20039;-72
2022/09/29 00:45:24;;;;;;;13.77;4.40;;;;;;;;;;5091255;28;20400;-73
2022/09/29 00:48:31;;;;;;;17.15;4.47;;;;;;;;;;5091157;28;20047;-73
2022/09/29 00:51:37;;;;;;;21.40;5.03;;;;;;;;;;5091060;28;20035;-73
2022/09/29 00:54:48;;;;;;;14.73;4.18;;;;;;;;;;5091268;28;20399;-73
2022/09/29 00:57:56;;;;;;;25.92;5.05;;;;;;;;;;5091090;28;20043;-72
2022/09/29 01:01:01;;;;;;;13.30;4.03;;;;;;;;;;5091364;28;20388;-73
2022/09/29 01:04:11;;;;;;;13.95;4.43;;;;;;;;;;5091188;28;20042;-73
2022/09/29 01:07:15;;;;;;;23.55;4.32;;;;;;;;;;5090752;28;20055;-73
2022/09/29 01:10:20;;;;;;;17.30;4.68;;;;;;;;;;5090761;28;20047;-74
2022/09/29 01:13:24;;;;;;;16.00;4.30;;;;;;;;;;5091137;28;20047;-73
2022/09/29 01:16:33;;;;;;;16.98;4.43;;;;;;;;;;5091594;28;20036;-73
2022/09/29 01:19:49;;;;;;;17.35;4.53;;;;;;;;;;5091314;28;20071;-73
2022/09/29 01:23:03;;;;;;;18.40;3.92;;;;;;;;;;5090246;28;20039;-73
2022/09/29 01:26:26;;;;;;;19.70;5.38;;;;;;;;;;5090742;28;20047;-73
2022/09/29 01:29:49;;;;;;;16.35;3.15;;;;;;;;;;5090658;28;20059;-73
2022/09/29 01:32:59;;;;;;;19.55;3.97;;;;;;;;;;5095032;28;20047;-73
2022/09/29 01:36:06;;;;;;;11.27;3.33;;;;;;;;;;5094714;28;20423;-73
2022/09/29 01:39:31;;;;;;;14.50;4.25;;;;;;;;;;5094786;28;20047;-73
2022/09/29 01:42:38;;;;;;;13.65;3.38;;;;;;;;;;5094460;28;20106;-73
2022/09/29 01:45:46;;;;;;;10.15;3.08;;;;;;;;;;5094763;28;20051;-74
2022/09/29 01:48:52;;;;;;;14.48;3.22;;;;;;;;;;5094336;28;20047;-74
2022/09/29 01:52:00;;;;;;;15.50;2.47;;;;;;;;;;5094400;28;20040;-74
2022/09/29 01:55:04;;;;;;;12.90;2.42;;;;;;;;;;5094548;28;20051;-74
2022/09/29 01:58:13;;;;;;;17.00;3.10;;;;;;;;;;5093272;28;20039;-73
2022/09/29 02:01:19;;;;;;;13.35;2.22;;;;;;;;;;5094193;28;20051;-74
2022/09/29 02:04:27;;;;;;;10.20;2.20;;;;;;;;;;5094366;28;20039;-73
2022/09/29 02:07:35;;;;;;;10.85;2.13;;;;;;;;;;5093045;28;20055;-72
2022/09/29 02:10:41;;;;;;;10.98;2.10;;;;;;;;;;5094270;28;20483;-75
2022/09/29 02:13:59;;;;;;;7.80;2.28;;;;;;;;;;5094107;28;20050;-73
2022/09/29 02:17:18;;;;;;;7.90;1.98;;;;;;;;;;5093955;28;20040;-74
2022/09/29 02:20:23;;;;;;;17.85;3.70;;;;;;;;;;5093995;28;20047;-76
2022/09/29 02:23:27;;;;;;;9.25;2.33;;;;;;;;;;5093979;28;20043;-72
2022/09/29 02:26:33;;;;;;;8.88;2.30;;;;;;;;;;5093631;28;20052;-73
2022/09/29 02:29:41;;;;;;;12.63;2.72;;;;;;;;;;5094091;28;20048;-73
2022/09/29 02:32:46;;;;;;;14.45;3.15;;;;;;;;;;5093921;28;20051;-73
2022/09/29 02:36:09;;;;;;;19.05;2.95;;;;;;;;;;5093679;28;20043;-74
2022/09/29 02:39:16;;;;;;;11.95;3.17;;;;;;;;;;5093306;28;20043;-74
2022/09/29 02:42:25;;;;;;;15.38;2.83;;;;;;;;;;5093565;28;20043;-73
2022/09/29 02:45:33;;;;;;;12.98;2.83;;;;;;;;;;5093630;28;20051;-74
2022/09/29 02:48:37;;;;;;;9.85;2.63;;;;;;;;;;5093531;28;20059;-74
2022/09/29 02:51:45;;;;;;;15.68;3.05;;;;;;;;;;5092714;28;20040;-74
2022/09/29 02:54:59;;;;;;;14.70;2.63;;;;;;;;;;5093630;28;20047;-74
2022/09/29 02:58:10;;;;;;;10.25;2.58;;;;;;;;;;5093093;28;20526;-73
2022/09/29 03:01:15;;;;;;;8.52;2.47;;;;;;;;;;5092587;28;20039;-73
2022/09/29 03:04:20;;;;;;;13.20;2.80;;;;;;;;;;5092174;28;20048;-74
2022/09/29 03:07:25;;;;;;;9.75;2.63;;;;;;;;;;5092909;28;20047;-74
2022/09/29 03:10:29;;;;;;;13.32;3.42;;;;;;;;;;5092999;28;20369;-74
2022/09/29 03:13:33;;;;;;;14.25;3.42;;;;;;;;;;5092185;28;20523;-74
2022/09/29 03:16:37;;;;;;;10.98;3.03;;;;;;;;;;5092613;28;20043;-74
2022/09/29 03:19:42;;;;;;;10.55;2.75;;;;;;;;;;5093577;28;20201;-73
2022/09/29 03:22:47;;;;;;;10.18;2.85;;;;;;;;;;5091879;28;20039;-74
2022/09/29 03:25:51;;;;;;;9.38;2.17;;;;;;;;;;5092709;28;20051;-75
2022/09/29 03:28:55;;;;;;;10.77;2.60;;;;;;;;;;5091842;28;20040;-74
2022/09/29 03:32:00;;;;;;;7.65;2.60;;;;;;;;;;5092542;28;20395;-75
2022/09/29 03:35:05;;;;;;;8.45;2.45;;;;;;;;;;5092663;28;20036;-74
2022/09/29 03:38:10;;;;;;;8.50;3.03;;;;;;;;;;5091200;28;20036;-75
2022/09/29 03:41:14;;;;;;;11.45;2.90;;;;;;;;;;5092344;28;20036;-74
2022/09/29 03:44:19;;;;;;;13.13;2.55;;;;;;;;;;5092546;28;20052;-75
2022/09/29 03:47:23;;;;;;;9.88;2.47;;;;;;;;;;5091927;28;20054;-73
2022/09/29 03:50:27;;;;;;;14.50;2.83;;;;;;;;;;5092420;28;20040;-74
2022/09/29 03:53:35;;;;;;;11.32;3.03;;;;;;;;;;5091757;28;20047;-74
2022/09/29 03:56:40;;;;;;;11.75;2.90;;;;;;;;;;5091805;28;20047;-74
2022/09/29 03:59:44;;;;;;;12.60;3.28;;;;;;;;;;5091892;28;20102;-74
2022/09/29 04:02:49;;;;;;;14.88;3.17;;;;;;;;;;5091189;28;20043;-75
2022/09/29 04:05:53;;;;;;;7.65;2.60;;;;;;;;;;5092067;28;20051;-74
2022/09/29 04:08:58;;;;;;;9.35;2.63;;;;;;;;;;5091747;28;20047;-74
2022/09/29 04:12:02;;;;;;;11.50;2.90;;;;;;;;;;5091326;28;20040;-74
2022/09/29 04:15:07;;;;;;;8.95;2.30;;;;;;;;;;5091017;28;20038;-74
2022/09/29 04:18:12;;;;;;;11.98;2.60;;;;;;;;;;5091398;28;20036;-74
2022/09/29 04:21:16;;;;;;;7.90;2.42;;;;;;;;;;5091661;28;20043;-74
2022/09/29 04:24:20;;;;;;;9.45;2.47;;;;;;;;;;5090827;28;20488;-74
2022/09/29 04:27:25;;;;;;;11.52;2.40;;;;;;;;;;5089828;28;20051;-74
2022/09/29 04:30:29;;;;;;;10.82;2.33;;;;;;;;;;5089784;28;20526;-75
2022/09/29 04:33:34;;;;;;;14.23;2.80;;;;;;;;;;5090533;28;20043;-73
2022/09/29 04:36:39;;;;;;;11.35;3.20;;;;;;;;;;5090591;28;20047;-74
2022/09/29 04:39:43;;;;;;;11.77;3.13;;;;;;;;;;5089812;28;20289;-74
2022/09/29 04:42:47;;;;;;;12.63;3.47;;;;;;;;;;5089756;28;20577;-74
2022/09/29 04:45:51;;;;;;;8.13;2.40;;;;;;;;;;5089647;28;20043;-74
2022/09/29 04:48:56;;;;;;;8.68;2.50;;;;;;;;;;5089573;28;20044;-75
2022/09/29 04:52:00;;;;;;;10.13;3.55;;;;;;;;;;5090201;28;20365;-79
2022/09/29 04:55:04;;;;;;;9.88;3.72;;;;;;;;;;5090487;28;20043;-75
2022/09/29 04:58:09;;;;;;;11.30;4.18;;;;;;;;;;5089266;28;20480;-75
2022/09/29 05:01:13;;;;;;;11.57;3.40;;;;;;;;;;5089386;28;20416;-74
2022/09/29 05:04:17;;;;;;;9.60;3.83;;;;;;;;;;5089010;28;20047;-76
2022/09/29 05:07:22;;;;;;;11.40;3.97;;;;;;;;;;5089805;28;20393;-75
2022/09/29 05:10:26;;;;;;;12.60;4.30;;;;;;;;;;5090311;28;20043;-74
2022/09/29 05:13:30;;;;;;;12.50;4.03;;;;;;;;;;5089180;28;20047;-75
2022/09/29 05:16:35;;;;;;;18.10;5.03;;;;;;;;;;5089061;28;20047;-75
2022/09/29 05:19:39;;;;;;;12.30;5.53;;;;;;;;;;5089205;28;20043;-75
2022/09/29 05:22:44;;;;;;;13.20;4.57;;;;;;;;;;5090016;28;20047;-75
2022/09/29 05:25:48;;;;;;;16.75;6.47;;;;;;;;;;5089267;28;20039;-75
2022/09/29 05:28:52;;;;;;;12.30;4.18;;;;;;;;;;5043147;28;1340202;-74
2022/09/29 05:31:57;;;;;;;11.45;3.83;;;;;;;;;;5090533;28;20044;-74
2022/09/29 05:35:02;;;;;;;13.10;4.35;;;;;;;;;;5090627;28;20044;-74
2022/09/29 05:38:07;;;;;;;10.75;4.43;;;;;;;;;;5090373;28;20068;-74
2022/09/29 05:41:12;;;;;;;11.82;3.45;;;;;;;;;;5089710;28;20043;-75
2022/09/29 05:44:16;;;;;;;11.73;3.47;;;;;;;;;;5090160;28;20051;-74
2022/09/29 05:47:23;;;;;;;12.15;3.40;;;;;;;;;;5089626;28;20051;-74
2022/09/29 05:50:27;;;;;;;11.70;3.20;;;;;;;;;;5090715;28;20047;-74
2022/09/29 05:53:32;;;;;;;14.93;4.03;;;;;;;;;;5089886;28;20043;-75
2022/09/29 05:56:36;;;;;;;10.43;3.65;;;;;;;;;;5090430;28;20035;-72
2022/09/29 05:59:41;;;;;;;9.30;3.67;;;;;;;;;;5089791;28;20043;-73
2022/09/29 06:02:46;;;;;;;13.27;4.18;;;;;;;;;;5089664;28;20492;-74
2022/09/29 06:05:50;;;;;;;8.23;3.75;;;;;;;;;;5090810;28;20387;-73
2022/09/29 06:08:57;;;;;;;18.45;4.90;;;;;;;;;;5090261;28;20044;-72
2022/09/29 06:12:02;;;;;;;8.93;4.53;;;;;;;;;;5089732;28;20070;-70
2022/09/29 06:15:07;;;;;;;15.15;6.13;;;;;;;;;;5077916;28;20369;-68
2022/09/29 06:18:11;;;;;;;13.70;5.82;;;;;;;;;;5093920;28;20045;-74
2022/09/29 06:21:20;;;;;;;17.30;5.72;;;;;;;;;;5093007;28;20043;-74
2022/09/29 06:24:25;;;;;;;15.80;5.40;;;;;;;;;;5093712;28;20047;-72
2022/09/29 06:27:30;;;;;;;15.07;4.30;;;;;;;;;;5092542;28;20051;-74
2022/09/29 06:30:34;;;;;;;9.80;3.85;;;;;;;;;;5092695;28;20039;-70
2022/09/29 06:33:39;;;;;;;14.60;4.90;;;;;;;;;;5093710;28;20039;-72
2022/09/29 06:40:07;;;;;;;9.00;3.90;;;;;;;;;;5093311;28;20174;-71
2022/09/29 06:43:12;;;;;;;13.77;3.60;;;;;;;;;;5093453;28;20397;-75
2022/09/29 06:46:16;;;;;;;11.02;4.18;;;;;;;;;;5093066;28;20047;-73
2022/09/29 06:49:20;;;;;;;7.88;3.03;;;;;;;;;;5093348;28;20051;-71
2022/09/29 06:52:25;;;;;;;9.00;3.50;;;;;;;;;;5093266;28;20040;-70
2022/09/29 06:55:30;;;;;;;9.23;3.20;;;;;;;;;;5093222;28;20044;-73
2022/09/29 06:58:34;;;;;;;7.53;2.45;;;;;;;;;;5093345;28;20036;-75
2022/09/29 07:01:38;;;;;;;9.43;2.80;;;;;;;;;;5093226;28;20040;-73
2022/09/29 07:04:43;;;;;;;12.93;3.08;;;;;;;;;;5093182;28;20036;-68
2022/09/29 07:07:48;;;;;;;12.73;2.95;;;;;;;;;;5092865;28;20059;-67
2022/09/29 07:10:52;;;;;;;10.07;2.55;;;;;;;;;;5092922;28;20047;-78
2022/09/29 07:13:56;;;;;;;7.05;2.00;;;;;;;;;;5092520;28;20047;-78
2022/09/29 07:17:01;;;;;;;9.90;2.63;;;;;;;;;;5093170;28;20032;-74
2022/09/29 07:20:06;;;;;;;11.75;2.15;;;;;;;;;;5093401;28;20036;-75
2022/09/29 07:23:10;;;;;;;10.90;2.78;;;;;;;;;;5092928;28;20047;-77
2022/09/29 07:26:15;;;;;;;11.75;2.90;;;;;;;;;;5092683;28;20043;-86
2022/09/29 07:29:20;;;;;;;13.93;2.80;;;;;;;;;;5092208;28;20047;-77
2022/09/29 07:32:25;;;;;;;10.70;2.28;;;;;;;;;;5093489;28;20046;-81
2022/09/29 07:35:30;;;;;;;12.98;2.35;;;;;;;;;;5094163;28;20047;-84
2022/09/29 07:38:34;;;;;;;13.18;2.45;;;;;;;;;;5092699;28;20419;-81
2022/09/29 07:41:38;;;;;;;12.63;2.55;;;;;;;;;;5093448;28;20047;-76
2022/09/29 07:44:43;;;;;;;15.10;2.35;;;;;;;;;;5092653;28;20043;-75
2022/09/29 07:47:48;;;;;;;10.73;2.22;;;;;;;;;;5091754;28;20051;-82
2022/09/29 07:50:52;;;;;;;9.85;1.75;;;;;;;;;;5091850;28;20467;-71
2022/09/29 07:54:00;;;;;;;10.98;2.13;;;;;;;;;;5092682;28;20036;-78
2022/09/29 07:57:05;;;;;;;10.55;2.50;;;;;;;;;;5092300;28;20302;-77
2022/09/29 08:00:09;;;;;;;12.73;2.95;;;;;;;;;;5092471;28;20043;-77
2022/09/29 08:03:15;;;;;;;9.38;3.17;;;;;;;;;;5092984;28;20051;-74
2022/09/29 08:06:20;;;;;;;13.88;2.53;;;;;;;;;;5093480;28;20036;-79
2022/09/29 08:09:26;;;;;;;15.57;3.13;;;;;;;;;;5093169;28;20051;-77
2022/09/29 08:12:31;;;;;;;9.45;2.15;;;;;;;;;;5090974;28;20118;-74
2022/09/29 08:15:35;;;;;;;13.13;2.72;;;;;;;;;;5091258;28;20052;-73
2022/09/29 08:18:40;;;;;;;10.38;2.40;;;;;;;;;;5091688;28;20043;-71
2022/09/29 08:21:48;;;;;;;14.43;2.50;;;;;;;;;;5091509;28;20043;-72
2022/09/29 08:24:53;;;;;;;14.45;2.60;;;;;;;;;;5091480;28;20043;-71
2022/09/29 08:27:57;;;;;;;11.77;2.95;;;;;;;;;;5090253;28;20059;-75
2022/09/29 08:31:06;;;;;;;11.13;2.17;;;;;;;;;;5091243;28;20516;-74
2022/09/29 08:34:12;;;;;;;15.48;2.88;;;;;;;;;;5092933;28;20047;-82
2022/09/29 08:37:16;;;;;;;18.08;3.47;;;;;;;;;;5091373;28;20317;-77
2022/09/29 08:40:21;;;;;;;7.47;2.63;;;;;;;;;;5089401;28;20039;-72
2022/09/29 08:43:29;;;;;;;9.23;2.50;;;;;;;;;;5090688;28;20044;-73
2022/09/29 08:46:46;;;;;;;11.75;2.25;;;;;;;;;;5090337;28;20460;-73
2022/09/29 08:49:56;;;;;;;6.38;2.00;;;;;;;;;;5090138;28;20055;-73
2022/09/29 08:53:12;;;;;;;7.65;2.10;;;;;;;;;;5090775;28;20044;-72
2022/09/29 08:56:17;;;;;;;9.98;2.42;;;;;;;;;;5090869;28;20044;-72
2022/09/29 08:59:24;;;;;;;7.05;2.25;;;;;;;;;;5091558;28;20040;-72
2022/09/29 09:02:32;;;;;;;9.88;1.65;;;;;;;;;;5091462;28;20051;-72
2022/09/29 09:05:42;;;;;;;10.20;1.67;;;;;;;;;;5090116;28;20044;-71
2022/09/29 09:08:47;;;;;;;8.50;1.60;;;;;;;;;;5089927;28;20051;-73
2022/09/29 09:12:06;;;;;;;11.60;2.08;;;;;;;;;;5090937;28;20262;-72
2022/09/29 09:15:23;;;;;;;22.23;2.65;;;;;;;;;;5091241;28;20039;-73
2022/09/29 09:18:38;;;;;;;9.63;2.30;;;;;;;;;;5090953;28;20098;-72
2022/09/29 09:21:44;;;;;;;8.32;2.10;;;;;;;;;;5091134;28;20040;-72
2022/09/29 09:24:54;;;;;;;7.25;1.42;;;;;;;;;;5091332;28;20480;-77
2022/09/29 09:28:26;;;;;;;9.30;2.57;;;;;;;;;;5090776;28;20048;-75
2022/09/29 09:31:35;;;;;;;6.85;2.30;;;;;;;;;;5091318;28;20036;-78
2022/09/29 09:34:46;;;;;;;6.47;1.83;;;;;;;;;;5092244;28;20048;-79
2022/09/29 09:37:52;;;;;;;3.25;1.50;;;;;;;;;;5091125;28;20036;-73
2022/09/29 09:40:58;;;;;;;5.70;1.38;;;;;;;;;;5091114;28;20424;-72
2022/09/29 09:44:08;;;;;;;8.55;1.55;;;;;;;;;;5090739;28;20063;-69
2022/09/29 09:47:30;;;;;;;5.20;1.73;;;;;;;;;;5090816;28;20373;-81
2022/09/29 09:50:36;;;;;;;4.10;1.10;;;;;;;;;;5090994;28;20040;-71
2022/09/29 09:53:43;;;;;;;3.35;1.17;;;;;;;;;;5094018;28;20040;-79
2022/09/29 09:56:59;;;;;;;8.30;1.67;;;;;;;;;;5093777;28;20044;-74
2022/09/29 10:00:28;;;;;;;5.90;1.40;;;;;;;;;;5094523;28;20032;-75
2022/09/29 10:03:32;;;;;;;4.93;1.33;;;;;;;;;;5093840;28;20039;-74
2022/09/29 10:06:37;;;;;;;6.35;1.30;;;;;;;;;;5094014;28;20048;-76
2022/09/29 10:09:42;;;;;;;8.13;1.60;;;;;;;;;;5094447;28;20377;-76
2022/09/29 10:12:49;;;;;;;9.35;1.58;;;;;;;;;;5094808;28;20040;-72
2022/09/29 10:15:53;;;;;;;4.97;1.42;;;;;;;;;;5094694;28;20036;-70
2022/09/29 10:18:57;;;;;;;5.38;1.10;;;;;;;;;;5094501;28;20040;-74
2022/09/29 10:22:12;;;;;;;3.28;1.23;;;;;;;;;;5081776;28;20032;-71
2022/09/29 10:25:17;;;;;;;5.18;1.35;;;;;;;;;;5093813;28;20032;-72
2022/09/29 10:28:22;;;;;;;6.97;1.05;;;;;;;;;;5093486;28;20052;-72
2022/09/29 10:31:27;;;;;;;2.63;1.10;;;;;;;;;;5093815;28;20032;-72
2022/09/29 10:34:32;;;;;;;5.20;1.00;;;;;;;;;;5094477;28;20044;-73
2022/09/29 10:37:39;;;;;;;2.65;0.88;;;;;;;;;;5093750;28;20036;-73
2022/09/29 10:40:56;;;;;;;7.68;1.45;;;;;;;;;;5093742;28;20564;-75
2022/09/29 10:44:19;;;;;;;3.67;1.13;;;;;;;;;;5093619;28;20036;-75
2022/09/29 10:47:23;;;;;;;2.28;1.20;;;;;;;;;;5093516;28;20044;-76
2022/09/29 10:50:29;;;;;;;8.20;1.55;;;;;;;;;;5093590;28;20040;-72
2022/09/29 10:53:36;;;;;;;12.25;1.80;;;;;;;;;;5092583;28;20036;-73
2022/09/29 10:56:45;;;;;;;7.82;1.52;;;;;;;;;;5092698;28;20059;-77
2022/09/29 10:59:52;;;;;;;6.13;1.48;;;;;;;;;;5093151;28;20066;-74
2022/09/29 11:03:06;;;;;;;5.07;1.17;;;;;;;;;;5093331;28;20369;-74
2022/09/29 11:06:12;;;;;;;4.85;1.23;;;;;;;;;;5091876;28;20040;-72
2022/09/29 11:09:20;;;;;;;7.50;1.35;;;;;;;;;;5091997;28;20501;-73
2022/09/29 11:12:27;;;;;;;7.38;1.30;;;;;;;;;;5092620;28;20032;-75
2022/09/29 11:15:40;;;;;;;3.90;1.20;;;;;;;;;;5092778;28;20040;-73
2022/09/29 11:18:46;;;;;;;4.75;1.20;;;;;;;;;;5092194;28;20040;-72
2022/09/29 11:21:53;;;;;;;4.68;1.23;;;;;;;;;;5091993;28;20036;-73
2022/09/29 11:25:01;;;;;;;5.75;1.20;;;;;;;;;;5093015;28;20044;-73
2022/09/29 11:28:05;;;;;;;9.05;1.13;;;;;;;;;;5092520;28;20056;-75
2022/09/29 11:31:10;;;;;;;2.15;0.90;;;;;;;;;;5091529;28;20036;-72
2022/09/29 11:34:17;;;;;;;1.63;0.50;;;;;;;;;;5093541;28;20389;-74
2022/09/29 11:37:22;;;;;;;3.50;0.60;;;;;;;;;;5091418;28;20488;-74
2022/09/29 11:40:34;;;;;;;1.85;0.80;;;;;;;;;;5092359;28;20380;-72
2022/09/29 11:43:55;;;;;;;4.03;0.73;;;;;;;;;;5091987;28;20040;-74
2022/09/29 11:47:07;;;;;;;2.05;0.60;;;;;;;;;;5092152;28;20036;-73
2022/09/29 11:50:30;;;;;;;2.00;1.00;;;;;;;;;;5092432;28;20070;-73
2022/09/29 11:53:56;;;;;;;2.97;0.70;;;;;;;;;;5092346;28;20377;-73
2022/09/29 11:57:08;;;;;;;2.60;0.73;;;;;;;;;;5092184;28;20396;-74
2022/09/29 12:00:12;;;;;;;;;;;;;;;;;;5092750;28;20285;-75
2022/09/29 12:03:36;;;;;;;2.25;0.90;;;;;;;;;;5092864;28;19919;-72
2022/09/29 12:06:47;;;;;;;3.83;1.00;;;;;;;;;;5092194;28;20036;-73
2022/09/29 12:09:55;;;;;;;2.88;0.70;;;;;;;;;;5092366;28;20048;-73
2022/09/29 12:13:19;;;;;;;4.63;0.90;;;;;;;;;;5091948;28;20040;-73
2022/09/29 12:16:27;;;;;;;3.92;1.02;;;;;;;;;;5091968;28;20040;-73
2022/09/29 12:19:33;;;;;;;5.05;1.20;;;;;;;;;;5093354;28;20040;-74
2022/09/29 12:22:38;;;;;;;6.03;1.05;;;;;;;;;;5092077;28;20170;-73
2022/09/29 12:25:52;;;;;;;11.40;0.98;;;;;;;;;;5091627;28;20036;-73
2022/09/29 12:29:15;;;;;;;6.70;1.23;;;;;;;;;;5091527;28;20055;-73
2022/09/29 12:32:22;;;;;;;4.72;1.00;;;;;;;;;;5091882;28;20036;-74
2022/09/29 12:35:35;;;;;;;6.95;1.17;;;;;;;;;;5090879;28;20032;-72
2022/09/29 12:38:43;;;;;;;4.43;1.00;;;;;;;;;;5091790;28;20028;-73
2022/09/29 12:41:52;;;;;;;7.15;1.10;;;;;;;;;;5090988;28;20048;-73
2022/09/29 12:44:59;;;;;;;10.23;1.15;;;;;;;;;;5091768;28;20028;-74
2022/09/29 12:48:25;;;;;;;5.10;1.00;;;;;;;;;;5090897;28;20541;-73
2022/09/29 12:51:32;;;;;;;7.10;0.90;;;;;;;;;;5091422;28;20028;-75
2022/09/29 12:54:44;;;;;;;8.25;0.95;;;;;;;;;;5091515;28;20373;-74
2022/09/29 12:57:50;;;;;;;5.72;1.30;;;;;;;;;;5090263;28;20036;-71
2022/09/29 13:00:59;;;;;;;6.55;1.02;;;;;;;;;;5090958;28;20044;-74
2022/09/29 13:04:06;;;;;;;6.07;1.02;;;;;;;;;;5091320;28;20040;-73
2022/09/29 13:07:19;;;;;;;7.57;1.20;;;;;;;;;;5088895;28;20444;-76
2022/09/29 13:10:43;;;;;;;5.95;0.98;;;;;;;;;;5089813;28;20040;-69
2022/09/29 13:14:06;;;;;;;7.18;1.23;;;;;;;;;;5091232;28;20043;-70
2022/09/29 13:17:16;;;;;;;4.78;1.10;;;;;;;;;;5090809;28;20031;-75
2022/09/29 13:20:42;;;;;;;8.68;1.20;;;;;;;;;;5091006;28;20385;-74
2022/09/29 13:23:47;;;;;;;5.53;1.10;;;;;;;;;;5091260;28;20159;-74
2022/09/29 13:27:01;;;;;;;6.95;1.10;;;;;;;;;;5093593;28;20044;-74
2022/09/29 13:30:30;;;;;;;4.20;1.00;;;;;;;;;;5096528;28;20047;-74
2022/09/29 13:33:37;;;;;;;6.60;1.10;;;;;;;;;;5096652;28;20032;-73
2022/09/29 13:36:45;;;;;;;5.53;1.23;;;;;;;;;;5094842;28;20036;-74
2022/09/29 13:40:00;;;;;;;6.47;1.30;;;;;;;;;;5094407;28;20032;-74
2022/09/29 13:43:04;;;;;;;7.90;1.50;;;;;;;;;;5094441;28;20040;-74
2022/09/29 13:46:30;;;;;;;5.07;1.25;;;;;;;;;;5093777;28;20032;-74
2022/09/29 13:49:34;;;;;;;5.13;1.00;;;;;;;;;;5094993;28;20373;-73
2022/09/29 13:52:39;;;;;;;6.28;1.30;;;;;;;;;;5094713;28;20024;-74
2022/09/29 13:55:53;;;;;;;6.70;1.30;;;;;;;;;;5094709;28;20503;-74
2022/09/29 13:58:59;;;;;;;8.98;1.25;;;;;;;;;;5094514;28;20044;-73
2022/09/29 14:02:17;;;;;;;5.78;1.30;;;;;;;;;;5081953;28;20039;-74
2022/09/29 14:05:24;;;;;;;6.22;1.23;;;;;;;;;;5093896;28;20032;-74
2022/09/29 14:08:30;;;;;;;5.95;1.20;;;;;;;;;;5093858;28;20044;-74
2022/09/29 14:11:48;;;;;;;6.60;1.10;;;;;;;;;;5094242;28;20043;-74
2022/09/29 14:14:55;;;;;;;5.60;1.05;;;;;;;;;;5094203;28;20440;-74
2022/09/29 14:18:03;;;;;;;6.88;1.35;;;;;;;;;;5093209;28;20040;-73
2022/09/29 14:21:12;;;;;;;7.68;1.15;;;;;;;;;;5093954;28;20381;-74
2022/09/29 14:24:45;;;;;;;6.45;1.25;;;;;;;;;;5093779;28;20033;-73
2022/09/29 14:28:02;;;;;;;8.05;1.75;;;;;;;;;;5093527;28;20040;-74
2022/09/29 14:31:19;;;;;;;6.85;1.88;;;;;;;;;;5093164;28;20036;-72
2022/09/29 14:34:26;;;;;;;8.65;1.70;;;;;;;;;;5094384;28;20028;-73
2022/09/29 14:37:30;;;;;;;10.27;1.92;;;;;;;;;;5092068;28;20040;-74
2022/09/29 14:40:35;;;;;;;8.02;1.60;;;;;;;;;;5081088;28;20050;-73
2022/09/29 14:43:44;;;;;;;13.00;1.95;;;;;;;;;;5091477;28;20036;-76
2022/09/29 14:54:10;;;;;;;6.45;2.33;;;;;;;;;;5093243;28;20040;-77
2022/09/29 14:57:34;;;;;;;8.20;1.67;;;;;;;;;;5096251;28;20059;-77
2022/09/29 15:00:57;;;;;;;8.48;1.48;;;;;;;;;;5096265;28;20032;-75
2022/09/29 15:04:08;;;;;;;14.65;2.08;;;;;;;;;;5093776;28;20040;-78
2022/09/29 15:07:17;;;;;;;12.95;2.30;;;;;;;;;;5093508;28;20408;-80
2022/09/29 15:10:41;;;;;;;13.30;1.90;;;;;;;;;;5092714;28;20051;-77
2022/09/29 15:13:46;;;;;;;12.18;1.85;;;;;;;;;;5092829;28;20533;-73
2022/09/29 15:17:00;;;;;;;8.23;1.63;;;;;;;;;;5092205;28;20051;-76
2022/09/29 15:20:08;;;;;;;13.00;2.03;;;;;;;;;;5094242;28;20036;-80
2022/09/29 15:23:27;;;;;;;13.20;1.98;;;;;;;;;;5094518;28;20531;-81
2022/09/29 15:26:32;;;;;;;17.20;2.38;;;;;;;;;;5095716;28;20043;-76
2022/09/29 15:29:37;;;;;;;16.95;2.53;;;;;;;;;;5096539;28;20510;-82
2022/09/29 15:32:41;;;;;;;14.15;1.88;;;;;;;;;;5093861;28;20047;-79
2022/09/29 15:35:48;;;;;;;14.05;2.45;;;;;;;;;;5093731;28;20054;-73
2022/09/29 15:38:54;;;;;;;18.33;2.28;;;;;;;;;;5093421;28;20039;-81
2022/09/29 15:42:18;;;;;;;19.00;1.80;;;;;;;;;;5080046;28;20051;-74
2022/09/29 15:45:26;;;;;;;11.30;2.00;;;;;;;;;;5093782;28;20356;-76
2022/09/29 15:48:30;;;;;;;12.57;2.05;;;;;;;;;;5092078;28;20066;-76
2022/09/29 15:51:35;;;;;;;12.90;1.80;;;;;;;;;;5091943;28;20047;-74
2022/09/29 15:54:43;;;;;;;12.50;1.48;;;;;;;;;;5091353;28;20054;-73
2022/09/29 15:57:49;;;;;;;15.85;2.08;;;;;;;;;;5092189;28;20051;-73
2022/09/29 16:01:06;;;;;;;10.82;2.70;;;;;;;;;;5092419;28;20062;-79
2022/09/29 16:04:10;;;;;;;12.15;1.95;;;;;;;;;;5091668;28;20051;-77
2022/09/29 16:07:29;;;;;;;16.83;2.15;;;;;;;;;;5092481;28;20058;-83
2022/09/29 16:10:34;;;;;;;12.40;1.65;;;;;;;;;;5095078;28;20047;-81
2022/09/29 16:13:40;;;;;;;13.05;2.30;;;;;;;;;;5093221;28;20411;-78
2022/09/29 16:16:46;;;;;;;16.27;1.75;;;;;;;;;;5093707;28;20051;-78
2022/09/29 16:19:51;;;;;;;17.85;2.10;;;;;;;;;;5094591;28;20142;-74
2022/09/29 16:22:57;;;;;;;13.05;2.15;;;;;;;;;;5091793;28;20067;-74
2022/09/29 16:26:07;;;;;;;15.63;2.55;;;;;;;;;;5094238;28;20462;-83
2022/09/29 16:29:15;;;;;;;12.75;1.88;;;;;;;;;;5093090;28;20055;-78
2022/09/29 16:32:34;;;;;;;11.52;1.88;;;;;;;;;;5091364;28;20523;-78
2022/09/29 16:35:47;;;;;;;8.50;1.88;;;;;;;;;;5092509;28;20051;-73
2022/09/29 16:38:52;;;;;;;16.25;3.15;;;;;;;;;;5092578;28;20388;-74
2022/09/29 16:41:58;;;;;;;13.38;2.03;;;;;;;;;;5094094;28;20400;-76
2022/09/29 16:45:02;;;;;;;11.13;1.67;;;;;;;;;;5090422;28;20058;-83
2022/09/29 16:48:08;;;;;;;11.80;2.00;;;;;;;;;;5078609;28;20055;-76
2022/09/29 16:51:22;;;;;;;13.20;2.08;;;;;;;;;;5092200;28;20527;-78
2022/09/29 16:54:28;;;;;;;13.15;1.85;;;;;;;;;;5092162;28;20146;-79
2022/09/29 16:57:37;;;;;;;12.65;1.55;;;;;;;;;;5091793;28;20039;-80
2022/09/29 17:00:41;;;;;;;17.15;1.63;;;;;;;;;;5091472;28;20040;-81
2022/09/29 17:03:46;;;;;;;9.18;1.13;;;;;;;;;;5090574;28;20490;-73
2022/09/29 17:06:50;;;;;;;11.77;1.70;;;;;;;;;;5090562;28;20032;-76
2022/09/29 17:09:56;;;;;;;8.25;1.33;;;;;;;;;;5090723;28;20511;-81
2022/09/29 17:13:01;;;;;;;8.00;1.65;;;;;;;;;;5090745;28;20476;-76
2022/09/29 17:16:08;;;;;;;10.13;1.40;;;;;;;;;;5090723;28;20302;-74
2022/09/29 17:19:12;;;;;;;11.93;1.77;;;;;;;;;;5089920;28;20039;-74
2022/09/29 17:22:36;;;;;;;9.73;1.70;;;;;;;;;;5090923;28;20502;-80
2022/09/29 17:25:41;;;;;;;6.63;1.65;;;;;;;;;;5090895;28;20028;-74
2022/09/29 17:28:45;;;;;;;13.07;1.90;;;;;;;;;;5089387;28;20052;-73
2022/09/29 17:31:50;;;;;;;14.93;2.42;;;;;;;;;;5088408;28;20047;-74
2022/09/29 17:34:54;;;;;;;16.13;2.20;;;;;;;;;;5089143;28;20522;-73
2022/09/29 17:37:58;;;;;;;17.92;2.03;;;;;;;;;;5090115;28;20063;-72
2022/09/29 17:41:04;;;;;;;15.70;2.30;;;;;;;;;;5089679;28;20043;-73
2022/09/29 17:44:09;;;;;;;18.23;2.20;;;;;;;;;;5090333;28;20047;-72
2022/09/29 17:47:14;;;;;;;13.07;2.22;;;;;;;;;;5089651;28;20051;-73
2022/09/29 17:50:19;;;;;;;9.43;1.63;;;;;;;;;;5090306;28;20427;-74
2022/09/29 17:53:24;;;;;;;11.82;2.15;;;;;;;;;;5090394;28;20044;-73
2022/09/29 17:56:35;;;;;;;15.68;2.40;;;;;;;;;;5089837;28;20054;-72
2022/09/29 17:59:39;;;;;;;17.77;2.28;;;;;;;;;;5089831;28;20047;-73
2022/09/29 18:02:44;;;;;;;15.02;2.53;;;;;;;;;;5090166;28;20043;-73
2022/09/29 18:05:58;;;;;;;13.98;1.70;;;;;;;;;;5089969;28;20403;-72
2022/09/29 18:09:12;;;;;;;15.35;2.00;;;;;;;;;;5090096;28;20047;-73
2022/09/29 18:12:16;;;;;;;18.38;2.22;;;;;;;;;;5089567;28;20055;-74
2022/09/29 18:15:21;;;;;;;23.55;2.95;;;;;;;;;;5093572;28;20047;-74
2022/09/29 18:18:26;;;;;;;16.60;2.90;;;;;;;;;;5093753;28;20039;-73
2022/09/29 18:21:32;;;;;;;17.90;2.30;;;;;;;;;;5093440;28;20491;-73
2022/09/29 18:24:36;;;;;;;15.18;2.55;;;;;;;;;;5093686;28;20047;-73
2022/09/29 18:27:41;;;;;;;15.20;2.58;;;;;;;;;;5092924;28;20070;-73
2022/09/29 18:30:47;;;;;;;14.90;2.35;;;;;;;;;;5093844;28;20051;-72
2022/09/29 18:33:51;;;;;;;12.20;2.85;;;;;;;;;;5093525;28;20392;-74
2022/09/29 18:36:55;;;;;;;12.23;2.50;;;;;;;;;;5093385;28;20039;-73
2022/09/29 18:39:59;;;;;;;16.90;2.58;;;;;;;;;;5092393;28;20039;-74
2022/09/29 18:43:05;;;;;;;9.85;1.98;;;;;;;;;;5093085;28;20047;-73
2022/09/29 18:46:10;;;;;;;17.90;2.75;;;;;;;;;;5093197;28;20040;-73
2022/09/29 18:49:14;;;;;;;13.88;2.05;;;;;;;;;;5093031;28;20563;-73